sensor_id;sensor_type;location;lat;lon;timestamp;pressure;altitude;pressure_sealevel;temperature
45701;BMP280;36277;32.852;-116.998;2023-06-04T00:00:37;99746.69;;;26.55
45701;BMP280;36277;32.852;-116.998;2023-06-04T00:03:03;99754.06;;;26.67
45701;BMP280;36277;32.852;-116.998;2023-06-04T00:05:30;99749.88;;;26.58
45701;BMP280;36277;32.852;-116.998;2023-06-04T00:07:56;99743.94;;;26.42
45701;BMP280;36277;32.852;-116.998;2023-06-04T00:10:22;99752.91;;;26.44
45701;BMP280;36277;32.852;-116.998;2023-06-04T00:12:49;99750.13;;;26.31
45701;BMP280;36277;32.852;-116.998;2023-06-04T00:15:15;99750.16;;;26.25
45701;BMP280;36277;32.852;-116.998;2023-06-04T00:17:42;99746.53;;;26.31
45701;BMP280;36277;32.852;-116.998;2023-06-04T00:20:09;99747.38;;;26.44
45701;BMP280;36277;32.852;-116.998;2023-06-04T00:22:37;99739.63;;;26.59
45701;BMP280;36277;32.852;-116.998;2023-06-04T00:25:04;99744.50;;;26.70
45701;BMP280;36277;32.852;-116.998;2023-06-04T00:27:30;99738.69;;;26.78
45701;BMP280;36277;32.852;-116.998;2023-06-04T00:29:57;99731.84;;;26.87
45701;BMP280;36277;32.852;-116.998;2023-06-04T00:32:23;99742.09;;;26.80
45701;BMP280;36277;32.852;-116.998;2023-06-04T00:34:56;99730.28;;;26.60
45701;BMP280;36277;32.852;-116.998;2023-06-04T00:37:27;99728.00;;;26.31
45701;BMP280;36277;32.852;-116.998;2023-06-04T00:39:54;99736.41;;;25.92
45701;BMP280;36277;32.852;-116.998;2023-06-04T00:42:23;99733.84;;;25.84
45701;BMP280;36277;32.852;-116.998;2023-06-04T00:44:49;99739.13;;;26.05
45701;BMP280;36277;32.852;-116.998;2023-06-04T00:47:17;99736.72;;;26.28
45701;BMP280;36277;32.852;-116.998;2023-06-04T00:49:44;99737.38;;;26.43
45701;BMP280;36277;32.852;-116.998;2023-06-04T00:52:13;99723.47;;;26.56
45701;BMP280;36277;32.852;-116.998;2023-06-04T00:54:40;99723.84;;;26.66
45701;BMP280;36277;32.852;-116.998;2023-06-04T00:57:07;99743.88;;;26.68
45701;BMP280;36277;32.852;-116.998;2023-06-04T00:59:36;99737.47;;;26.67
45701;BMP280;36277;32.852;-116.998;2023-06-04T01:02:14;99733.78;;;26.23
45701;BMP280;36277;32.852;-116.998;2023-06-04T01:07:16;99743.16;;;25.38
45701;BMP280;36277;32.852;-116.998;2023-06-04T01:09:44;99751.91;;;25.67
45701;BMP280;36277;32.852;-116.998;2023-06-04T01:12:12;99743.00;;;25.91
45701;BMP280;36277;32.852;-116.998;2023-06-04T01:14:38;99744.22;;;26.08
45701;BMP280;36277;32.852;-116.998;2023-06-04T01:20:02;99746.09;;;26.34
45701;BMP280;36277;32.852;-116.998;2023-06-04T01:25:35;99748.22;;;26.44
45701;BMP280;36277;32.852;-116.998;2023-06-04T01:28:06;99753.09;;;26.49
45701;BMP280;36277;32.852;-116.998;2023-06-04T01:30:34;99755.06;;;26.23
45701;BMP280;36277;32.852;-116.998;2023-06-04T01:33:09;99758.50;;;25.73
45701;BMP280;36277;32.852;-116.998;2023-06-04T01:35:39;99764.88;;;25.47
45701;BMP280;36277;32.852;-116.998;2023-06-04T01:38:06;99761.88;;;25.62
45701;BMP280;36277;32.852;-116.998;2023-06-04T01:40:32;99761.09;;;25.81
45701;BMP280;36277;32.852;-116.998;2023-06-04T01:42:59;99755.97;;;25.97
45701;BMP280;36277;32.852;-116.998;2023-06-04T01:45:27;99752.97;;;26.05
45701;BMP280;36277;32.852;-116.998;2023-06-04T01:47:54;99768.47;;;26.13
45701;BMP280;36277;32.852;-116.998;2023-06-04T01:50:21;99765.06;;;26.17
45701;BMP280;36277;32.852;-116.998;2023-06-04T01:52:47;99764.22;;;26.23
45701;BMP280;36277;32.852;-116.998;2023-06-04T01:55:15;99768.22;;;26.27
45701;BMP280;36277;32.852;-116.998;2023-06-04T01:57:43;99758.44;;;26.31
45701;BMP280;36277;32.852;-116.998;2023-06-04T02:00:11;99769.50;;;26.31
45701;BMP280;36277;32.852;-116.998;2023-06-04T02:02:38;99770.78;;;26.35
45701;BMP280;36277;32.852;-116.998;2023-06-04T02:05:07;99773.34;;;26.37
45701;BMP280;36277;32.852;-116.998;2023-06-04T02:07:44;99773.09;;;26.38
45701;BMP280;36277;32.852;-116.998;2023-06-04T02:10:12;99768.25;;;26.21
45701;BMP280;36277;32.852;-116.998;2023-06-04T02:12:40;99775.09;;;25.73
45701;BMP280;36277;32.852;-116.998;2023-06-04T02:15:09;99775.91;;;25.22
45701;BMP280;36277;32.852;-116.998;2023-06-04T02:17:36;99777.84;;;25.40
45701;BMP280;36277;32.852;-116.998;2023-06-04T02:20:08;99772.53;;;25.58
45701;BMP280;36277;32.852;-116.998;2023-06-04T02:22:37;99776.34;;;25.77
45701;BMP280;36277;32.852;-116.998;2023-06-04T02:25:05;99774.25;;;25.92
45701;BMP280;36277;32.852;-116.998;2023-06-04T02:27:31;99779.75;;;26.11
45701;BMP280;36277;32.852;-116.998;2023-06-04T02:29:57;99778.69;;;26.19
45701;BMP280;36277;32.852;-116.998;2023-06-04T02:32:23;99781.44;;;26.25
45701;BMP280;36277;32.852;-116.998;2023-06-04T02:34:50;99782.69;;;26.29
45701;BMP280;36277;32.852;-116.998;2023-06-04T02:37:16;99786.97;;;26.32
45701;BMP280;36277;32.852;-116.998;2023-06-04T02:39:43;99787.38;;;26.35
45701;BMP280;36277;32.852;-116.998;2023-06-04T02:42:09;99794.41;;;26.38
45701;BMP280;36277;32.852;-116.998;2023-06-04T02:44:35;99794.81;;;26.41
45701;BMP280;36277;32.852;-116.998;2023-06-04T02:47:01;99789.94;;;26.43
45701;BMP280;36277;32.852;-116.998;2023-06-04T02:49:29;99794.19;;;26.45
45701;BMP280;36277;32.852;-116.998;2023-06-04T02:51:55;99794.00;;;26.47
45701;BMP280;36277;32.852;-116.998;2023-06-04T02:54:22;99800.16;;;26.49
45701;BMP280;36277;32.852;-116.998;2023-06-04T02:56:48;99795.47;;;26.49
45701;BMP280;36277;32.852;-116.998;2023-06-04T02:59:15;99815.47;;;26.51
45701;BMP280;36277;32.852;-116.998;2023-06-04T03:01:41;99818.00;;;26.53
45701;BMP280;36277;32.852;-116.998;2023-06-04T03:04:07;99818.88;;;26.53
45701;BMP280;36277;32.852;-116.998;2023-06-04T03:06:36;99815.88;;;26.55
45701;BMP280;36277;32.852;-116.998;2023-06-04T03:09:06;99815.50;;;26.13
45701;BMP280;36277;32.852;-116.998;2023-06-04T03:11:32;99822.13;;;25.92
45701;BMP280;36277;32.852;-116.998;2023-06-04T03:13:59;99827.56;;;25.40
45701;BMP280;36277;32.852;-116.998;2023-06-04T03:16:25;99835.44;;;25.56
45701;BMP280;36277;32.852;-116.998;2023-06-04T03:18:51;99844.84;;;25.68
45701;BMP280;36277;32.852;-116.998;2023-06-04T03:21:18;99853.16;;;25.81
45701;BMP280;36277;32.852;-116.998;2023-06-04T03:23:44;99846.38;;;25.90
45701;BMP280;36277;32.852;-116.998;2023-06-04T03:26:10;99857.41;;;25.97
45701;BMP280;36277;32.852;-116.998;2023-06-04T03:28:39;99862.75;;;26.05
45701;BMP280;36277;32.852;-116.998;2023-06-04T03:31:06;99861.03;;;26.10
45701;BMP280;36277;32.852;-116.998;2023-06-04T03:33:32;99867.22;;;26.12
45701;BMP280;36277;32.852;-116.998;2023-06-04T03:35:58;99865.91;;;26.15
45701;BMP280;36277;32.852;-116.998;2023-06-04T03:38:25;99861.66;;;26.19
45701;BMP280;36277;32.852;-116.998;2023-06-04T03:40:51;99864.25;;;26.20
45701;BMP280;36277;32.852;-116.998;2023-06-04T03:43:21;99863.19;;;26.21
45701;BMP280;36277;32.852;-116.998;2023-06-04T03:45:47;99870.41;;;26.22
45701;BMP280;36277;32.852;-116.998;2023-06-04T03:48:14;99872.94;;;26.24
45701;BMP280;36277;32.852;-116.998;2023-06-04T03:50:40;99877.66;;;26.23
45701;BMP280;36277;32.852;-116.998;2023-06-04T03:53:07;99868.28;;;26.24
45701;BMP280;36277;32.852;-116.998;2023-06-04T03:55:33;99871.66;;;26.26
45701;BMP280;36277;32.852;-116.998;2023-06-04T03:58:00;99874.66;;;26.25
45701;BMP280;36277;32.852;-116.998;2023-06-04T04:00:26;99871.06;;;26.24
45701;BMP280;36277;32.852;-116.998;2023-06-04T04:02:52;99867.19;;;26.25
45701;BMP280;36277;32.852;-116.998;2023-06-04T04:05:19;99872.94;;;26.24
45701;BMP280;36277;32.852;-116.998;2023-06-04T04:07:45;99869.13;;;26.25
45701;BMP280;36277;32.852;-116.998;2023-06-04T04:10:13;99872.72;;;26.25
45701;BMP280;36277;32.852;-116.998;2023-06-04T04:12:39;99879.78;;;26.21
45701;BMP280;36277;32.852;-116.998;2023-06-04T04:15:06;99879.75;;;25.89
45701;BMP280;36277;32.852;-116.998;2023-06-04T04:17:32;99882.06;;;25.72
45701;BMP280;36277;32.852;-116.998;2023-06-04T04:19:58;99880.94;;;25.54
45701;BMP280;36277;32.852;-116.998;2023-06-04T04:22:25;99890.66;;;25.37
45701;BMP280;36277;32.852;-116.998;2023-06-04T04:24:51;99885.72;;;25.20
45701;BMP280;36277;32.852;-116.998;2023-06-04T04:27:17;99890.50;;;25.05
45701;BMP280;36277;32.852;-116.998;2023-06-04T04:29:43;99900.19;;;24.88
45701;BMP280;36277;32.852;-116.998;2023-06-04T04:32:13;99906.88;;;24.66
45701;BMP280;36277;32.852;-116.998;2023-06-04T04:34:53;99907.00;;;24.58
45701;BMP280;36277;32.852;-116.998;2023-06-04T04:37:21;99907.31;;;24.42
45701;BMP280;36277;32.852;-116.998;2023-06-04T04:39:47;99913.75;;;24.28
45701;BMP280;36277;32.852;-116.998;2023-06-04T04:42:18;99920.59;;;24.32
45701;BMP280;36277;32.852;-116.998;2023-06-04T04:44:44;99920.03;;;24.43
45701;BMP280;36277;32.852;-116.998;2023-06-04T04:47:16;99936.53;;;24.57
45701;BMP280;36277;32.852;-116.998;2023-06-04T04:49:42;99941.19;;;24.57
45701;BMP280;36277;32.852;-116.998;2023-06-04T04:52:09;99938.38;;;24.50
45701;BMP280;36277;32.852;-116.998;2023-06-04T04:54:35;99946.59;;;24.44
45701;BMP280;36277;32.852;-116.998;2023-06-04T04:57:01;99942.13;;;24.22
45701;BMP280;36277;32.852;-116.998;2023-06-04T04:59:27;99950.69;;;24.06
45701;BMP280;36277;32.852;-116.998;2023-06-04T05:01:54;99960.88;;;24.06
45701;BMP280;36277;32.852;-116.998;2023-06-04T05:04:20;99960.31;;;24.16
45701;BMP280;36277;32.852;-116.998;2023-06-04T05:06:46;99962.09;;;24.24
45701;BMP280;36277;32.852;-116.998;2023-06-04T05:09:12;99954.56;;;24.32
45701;BMP280;36277;32.852;-116.998;2023-06-04T05:11:39;99959.72;;;24.42
45701;BMP280;36277;32.852;-116.998;2023-06-04T05:14:05;99966.16;;;24.49
45701;BMP280;36277;32.852;-116.998;2023-06-04T05:16:32;99969.16;;;24.54
45701;BMP280;36277;32.852;-116.998;2023-06-04T05:19:01;99957.41;;;24.45
45701;BMP280;36277;32.852;-116.998;2023-06-04T05:21:28;99963.28;;;24.36
45701;BMP280;36277;32.852;-116.998;2023-06-04T05:23:55;99951.94;;;24.24
45701;BMP280;36277;32.852;-116.998;2023-06-04T05:26:21;99957.47;;;24.04
45701;BMP280;36277;32.852;-116.998;2023-06-04T05:28:49;99957.66;;;24.02
45701;BMP280;36277;32.852;-116.998;2023-06-04T05:31:16;99958.56;;;24.09
45701;BMP280;36277;32.852;-116.998;2023-06-04T05:33:43;99952.44;;;24.13
45701;BMP280;36277;32.852;-116.998;2023-06-04T05:36:10;99957.00;;;24.21
45701;BMP280;36277;32.852;-116.998;2023-06-04T05:38:38;99940.50;;;24.27
45701;BMP280;36277;32.852;-116.998;2023-06-04T05:41:04;99933.31;;;24.33
45701;BMP280;36277;32.852;-116.998;2023-06-04T05:43:30;99928.91;;;24.38
45701;BMP280;36277;32.852;-116.998;2023-06-04T05:45:56;99932.13;;;24.42
45701;BMP280;36277;32.852;-116.998;2023-06-04T05:48:23;99931.75;;;24.45
45701;BMP280;36277;32.852;-116.998;2023-06-04T05:50:49;99924.78;;;24.49
45701;BMP280;36277;32.852;-116.998;2023-06-04T05:53:15;99930.94;;;24.51
45701;BMP280;36277;32.852;-116.998;2023-06-04T05:55:42;99921.59;;;24.52
45701;BMP280;36277;32.852;-116.998;2023-06-04T05:58:08;99912.16;;;24.40
45701;BMP280;36277;32.852;-116.998;2023-06-04T06:00:35;99916.72;;;24.26
45701;BMP280;36277;32.852;-116.998;2023-06-04T06:03:01;99908.94;;;24.09
45701;BMP280;36277;32.852;-116.998;2023-06-04T06:05:27;99912.22;;;23.98
45701;BMP280;36277;32.852;-116.998;2023-06-04T06:07:53;99909.06;;;24.01
45701;BMP280;36277;32.852;-116.998;2023-06-04T06:10:21;99911.91;;;24.08
45701;BMP280;36277;32.852;-116.998;2023-06-04T06:12:47;99901.31;;;24.11
45701;BMP280;36277;32.852;-116.998;2023-06-04T06:15:14;99900.53;;;24.17
45701;BMP280;36277;32.852;-116.998;2023-06-04T06:17:40;99900.75;;;24.22
45701;BMP280;36277;32.852;-116.998;2023-06-04T06:20:07;99896.56;;;24.26
45701;BMP280;36277;32.852;-116.998;2023-06-04T06:22:34;99889.59;;;24.30
45701;BMP280;36277;32.852;-116.998;2023-06-04T06:25:02;99885.38;;;24.34
45701;BMP280;36277;32.852;-116.998;2023-06-04T06:27:31;99878.59;;;24.36
45701;BMP280;36277;32.852;-116.998;2023-06-04T06:29:57;99879.06;;;24.40
45701;BMP280;36277;32.852;-116.998;2023-06-04T06:32:23;99878.66;;;24.43
45701;BMP280;36277;32.852;-116.998;2023-06-04T06:34:49;99885.66;;;24.45
45701;BMP280;36277;32.852;-116.998;2023-06-04T06:37:16;99877.88;;;24.49
45701;BMP280;36277;32.852;-116.998;2023-06-04T06:39:42;99873.00;;;24.51
45701;BMP280;36277;32.852;-116.998;2023-06-04T06:42:08;99872.34;;;24.49
45701;BMP280;36277;32.852;-116.998;2023-06-04T06:44:34;99865.28;;;24.40
45701;BMP280;36277;32.852;-116.998;2023-06-04T06:47:01;99875.25;;;24.41
45701;BMP280;36277;32.852;-116.998;2023-06-04T06:49:27;99870.13;;;24.38
45701;BMP280;36277;32.852;-116.998;2023-06-04T06:51:53;99858.22;;;24.37
45701;BMP280;36277;32.852;-116.998;2023-06-04T06:54:20;99860.81;;;24.39
45701;BMP280;36277;32.852;-116.998;2023-06-04T06:56:48;99855.28;;;24.39
45701;BMP280;36277;32.852;-116.998;2023-06-04T06:59:16;99848.91;;;24.38
45701;BMP280;36277;32.852;-116.998;2023-06-04T07:01:42;99846.75;;;24.34
45701;BMP280;36277;32.852;-116.998;2023-06-04T07:04:08;99851.34;;;24.20
45701;BMP280;36277;32.852;-116.998;2023-06-04T07:06:35;99857.06;;;24.19
45701;BMP280;36277;32.852;-116.998;2023-06-04T07:09:02;99853.25;;;24.20
45701;BMP280;36277;32.852;-116.998;2023-06-04T07:11:31;99850.94;;;24.23
45701;BMP280;36277;32.852;-116.998;2023-06-04T07:13:57;99852.44;;;24.26
45701;BMP280;36277;32.852;-116.998;2023-06-04T07:16:24;99845.47;;;24.30
45701;BMP280;36277;32.852;-116.998;2023-06-04T07:18:50;99845.28;;;24.31
45701;BMP280;36277;32.852;-116.998;2023-06-04T07:21:17;99842.97;;;24.35
45701;BMP280;36277;32.852;-116.998;2023-06-04T07:23:45;99845.09;;;24.39
45701;BMP280;36277;32.852;-116.998;2023-06-04T07:26:15;99830.25;;;24.40
45701;BMP280;36277;32.852;-116.998;2023-06-04T07:28:42;99828.13;;;24.42
45701;BMP280;36277;32.852;-116.998;2023-06-04T07:31:08;99815.00;;;24.44
45701;BMP280;36277;32.852;-116.998;2023-06-04T07:33:34;99806.34;;;24.47
45701;BMP280;36277;32.852;-116.998;2023-06-04T07:36:10;99802.31;;;24.50
45701;BMP280;36277;32.852;-116.998;2023-06-04T07:38:37;99795.97;;;24.49
45701;BMP280;36277;32.852;-116.998;2023-06-04T07:41:03;99803.84;;;24.52
45701;BMP280;36277;32.852;-116.998;2023-06-04T07:43:29;99798.09;;;24.54
45701;BMP280;36277;32.852;-116.998;2023-06-04T07:45:56;99792.34;;;24.49
45701;BMP280;36277;32.852;-116.998;2023-06-04T07:48:22;99790.78;;;24.40
45701;BMP280;36277;32.852;-116.998;2023-06-04T07:50:59;99794.28;;;24.21
45701;BMP280;36277;32.852;-116.998;2023-06-04T07:53:26;99798.63;;;24.03
45701;BMP280;36277;32.852;-116.998;2023-06-04T07:55:53;99799.19;;;23.98
45701;BMP280;36277;32.852;-116.998;2023-06-04T07:58:20;99799.84;;;24.00
45701;BMP280;36277;32.852;-116.998;2023-06-04T08:00:47;99795.66;;;24.04
45701;BMP280;36277;32.852;-116.998;2023-06-04T08:03:13;99790.38;;;24.09
45701;BMP280;36277;32.852;-116.998;2023-06-04T08:05:41;99792.75;;;24.12
45701;BMP280;36277;32.852;-116.998;2023-06-04T08:08:08;99787.66;;;24.15
45701;BMP280;36277;32.852;-116.998;2023-06-04T08:10:34;99786.41;;;24.18
45701;BMP280;36277;32.852;-116.998;2023-06-04T08:13:00;99787.91;;;24.20
45701;BMP280;36277;32.852;-116.998;2023-06-04T08:15:27;99778.38;;;24.23
45701;BMP280;36277;32.852;-116.998;2023-06-04T08:17:53;99776.25;;;24.25
45701;BMP280;36277;32.852;-116.998;2023-06-04T08:20:20;99780.72;;;24.26
45701;BMP280;36277;32.852;-116.998;2023-06-04T08:22:46;99790.50;;;24.28
45701;BMP280;36277;32.852;-116.998;2023-06-04T08:25:13;99772.91;;;24.29
45701;BMP280;36277;32.852;-116.998;2023-06-04T08:27:40;99775.44;;;24.31
45701;BMP280;36277;32.852;-116.998;2023-06-04T08:30:07;99767.63;;;24.34
45701;BMP280;36277;32.852;-116.998;2023-06-04T08:32:34;99765.72;;;24.35
45701;BMP280;36277;32.852;-116.998;2023-06-04T08:35:00;99769.13;;;24.37
45701;BMP280;36277;32.852;-116.998;2023-06-04T08:37:27;99767.03;;;24.39
45701;BMP280;36277;32.852;-116.998;2023-06-04T08:39:53;99768.72;;;24.40
45701;BMP280;36277;32.852;-116.998;2023-06-04T08:42:29;99763.47;;;24.45
45701;BMP280;36277;32.852;-116.998;2023-06-04T08:44:57;99755.59;;;24.42
45701;BMP280;36277;32.852;-116.998;2023-06-04T08:47:29;99752.41;;;24.45
45701;BMP280;36277;32.852;-116.998;2023-06-04T08:50:00;99750.50;;;24.45
45701;BMP280;36277;32.852;-116.998;2023-06-04T08:52:28;99751.78;;;24.43
45701;BMP280;36277;32.852;-116.998;2023-06-04T08:54:55;99742.44;;;24.44
45701;BMP280;36277;32.852;-116.998;2023-06-04T08:57:22;99737.75;;;24.44
45701;BMP280;36277;32.852;-116.998;2023-06-04T08:59:50;99734.63;;;24.47
45701;BMP280;36277;32.852;-116.998;2023-06-04T09:02:17;99738.63;;;24.45
45701;BMP280;36277;32.852;-116.998;2023-06-04T09:04:44;99745.84;;;24.46
45701;BMP280;36277;32.852;-116.998;2023-06-04T09:07:12;99740.97;;;24.48
45701;BMP280;36277;32.852;-116.998;2023-06-04T09:09:40;99736.53;;;24.47
45701;BMP280;36277;32.852;-116.998;2023-06-04T09:12:11;99740.78;;;24.49
45701;BMP280;36277;32.852;-116.998;2023-06-04T09:14:41;99733.38;;;24.16
45701;BMP280;36277;32.852;-116.998;2023-06-04T09:17:08;99741.41;;;24.11
45701;BMP280;36277;32.852;-116.998;2023-06-04T09:19:34;99744.50;;;23.95
45701;BMP280;36277;32.852;-116.998;2023-06-04T09:22:00;99751.59;;;23.83
45701;BMP280;36277;32.852;-116.998;2023-06-04T09:24:44;99747.41;;;23.87
45701;BMP280;36277;32.852;-116.998;2023-06-04T09:27:20;99752.91;;;23.87
45701;BMP280;36277;32.852;-116.998;2023-06-04T09:29:52;99757.19;;;23.96
45701;BMP280;36277;32.852;-116.998;2023-06-04T09:32:26;99755.75;;;24.00
45701;BMP280;36277;32.852;-116.998;2023-06-04T09:34:53;99756.41;;;24.02
45701;BMP280;36277;32.852;-116.998;2023-06-04T09:37:20;99754.75;;;24.08
45701;BMP280;36277;32.852;-116.998;2023-06-04T09:39:56;99743.09;;;24.12
45701;BMP280;36277;32.852;-116.998;2023-06-04T09:42:23;99733.31;;;24.10
45701;BMP280;36277;32.852;-116.998;2023-06-04T09:44:49;99730.38;;;24.11
45701;BMP280;36277;32.852;-116.998;2023-06-04T09:47:15;99740.13;;;24.13
45701;BMP280;36277;32.852;-116.998;2023-06-04T09:49:43;99735.50;;;24.14
45701;BMP280;36277;32.852;-116.998;2023-06-04T09:52:10;99736.13;;;24.16
45701;BMP280;36277;32.852;-116.998;2023-06-04T09:54:37;99732.31;;;24.17
45701;BMP280;36277;32.852;-116.998;2023-06-04T09:57:13;99731.28;;;24.18
45701;BMP280;36277;32.852;-116.998;2023-06-04T09:59:43;99732.09;;;24.18
45701;BMP280;36277;32.852;-116.998;2023-06-04T10:02:12;99727.47;;;24.19
45701;BMP280;36277;32.852;-116.998;2023-06-04T10:04:41;99732.53;;;24.22
45701;BMP280;36277;32.852;-116.998;2023-06-04T10:07:11;99730.00;;;24.20
45701;BMP280;36277;32.852;-116.998;2023-06-04T10:09:39;99732.53;;;24.22
45701;BMP280;36277;32.852;-116.998;2023-06-04T10:12:14;99732.34;;;24.23
45701;BMP280;36277;32.852;-116.998;2023-06-04T10:14:54;99729.38;;;24.25
45701;BMP280;36277;32.852;-116.998;2023-06-04T10:17:23;99738.06;;;24.22
45701;BMP280;36277;32.852;-116.998;2023-06-04T10:19:52;99735.13;;;24.23
45701;BMP280;36277;32.852;-116.998;2023-06-04T10:22:22;99740.41;;;24.25
45701;BMP280;36277;32.852;-116.998;2023-06-04T10:24:50;99731.50;;;24.23
45701;BMP280;36277;32.852;-116.998;2023-06-04T10:27:17;99737.66;;;24.25
45701;BMP280;36277;32.852;-116.998;2023-06-04T10:29:46;99737.66;;;24.25
45701;BMP280;36277;32.852;-116.998;2023-06-04T10:32:12;99724.50;;;24.27
45701;BMP280;36277;32.852;-116.998;2023-06-04T10:34:39;99724.50;;;24.27
45701;BMP280;36277;32.852;-116.998;2023-06-04T10:37:05;99724.50;;;24.27
45701;BMP280;36277;32.852;-116.998;2023-06-04T10:39:32;99712.44;;;24.28
45701;BMP280;36277;32.852;-116.998;2023-06-04T10:41:59;99719.66;;;24.29
45701;BMP280;36277;32.852;-116.998;2023-06-04T10:44:26;99712.25;;;24.29
45701;BMP280;36277;32.852;-116.998;2023-06-04T10:46:52;99717.75;;;24.29
45701;BMP280;36277;32.852;-116.998;2023-06-04T10:49:29;99710.13;;;24.31
45701;BMP280;36277;32.852;-116.998;2023-06-04T10:51:57;99705.03;;;24.28
45701;BMP280;36277;32.852;-116.998;2023-06-04T10:54:29;99703.09;;;24.29
45701;BMP280;36277;32.852;-116.998;2023-06-04T10:56:55;99705.84;;;24.29
45701;BMP280;36277;32.852;-116.998;2023-06-04T10:59:22;99702.03;;;24.30
45701;BMP280;36277;32.852;-116.998;2023-06-04T11:01:49;99701.22;;;24.29
45701;BMP280;36277;32.852;-116.998;2023-06-04T11:04:22;99705.44;;;24.32
45701;BMP280;36277;32.852;-116.998;2023-06-04T11:07:07;99694.41;;;24.32
45701;BMP280;36277;32.852;-116.998;2023-06-04T11:09:37;99699.50;;;24.28
45701;BMP280;36277;32.852;-116.998;2023-06-04T11:12:07;99697.00;;;24.33
45701;BMP280;36277;32.852;-116.998;2023-06-04T11:14:33;99690.19;;;24.29
45701;BMP280;36277;32.852;-116.998;2023-06-04T11:17:10;99699.53;;;24.35
45701;BMP280;36277;32.852;-116.998;2023-06-04T11:19:39;99696.34;;;24.31
45701;BMP280;36277;32.852;-116.998;2023-06-04T11:22:06;99696.13;;;24.33
45701;BMP280;36277;32.852;-116.998;2023-06-04T11:24:36;99697.19;;;24.32
45701;BMP280;36277;32.852;-116.998;2023-06-04T11:27:02;99700.81;;;24.32
45701;BMP280;36277;32.852;-116.998;2023-06-04T11:29:29;99699.94;;;24.32
45701;BMP280;36277;32.852;-116.998;2023-06-04T11:31:56;99691.66;;;24.32
45701;BMP280;36277;32.852;-116.998;2023-06-04T11:34:29;99690.19;;;24.36
45701;BMP280;36277;32.852;-116.998;2023-06-04T11:36:55;99685.09;;;24.33
45701;BMP280;36277;32.852;-116.998;2023-06-04T11:39:22;99674.06;;;24.33
45701;BMP280;36277;32.852;-116.998;2023-06-04T11:41:50;99677.69;;;24.33
45701;BMP280;36277;32.852;-116.998;2023-06-04T11:44:20;99675.75;;;24.34
45701;BMP280;36277;32.852;-116.998;2023-06-04T11:46:48;99669.56;;;24.19
45701;BMP280;36277;32.852;-116.998;2023-06-04T11:49:18;99670.50;;;23.99
45701;BMP280;36277;32.852;-116.998;2023-06-04T11:51:50;99658.25;;;23.74
45701;BMP280;36277;32.852;-116.998;2023-06-04T11:54:17;99659.06;;;23.74
45701;BMP280;36277;32.852;-116.998;2023-06-04T11:56:45;99655.91;;;23.77
45701;BMP280;36277;32.852;-116.998;2023-06-04T11:59:16;99655.78;;;23.79
45701;BMP280;36277;32.852;-116.998;2023-06-04T12:01:43;99647.50;;;23.79
45701;BMP280;36277;32.852;-116.998;2023-06-04T12:04:13;99654.50;;;23.81
45701;BMP280;36277;32.852;-116.998;2023-06-04T12:06:53;99651.34;;;23.84
45701;BMP280;36277;32.852;-116.998;2023-06-04T12:09:21;99660.44;;;23.85
45701;BMP280;36277;32.852;-116.998;2023-06-04T12:11:48;99654.34;;;23.89
45701;BMP280;36277;32.852;-116.998;2023-06-04T12:14:18;99651.84;;;23.94
45701;BMP280;36277;32.852;-116.998;2023-06-04T12:17:08;99651.84;;;23.94
45701;BMP280;36277;32.852;-116.998;2023-06-04T12:19:46;99659.47;;;23.99
45701;BMP280;36277;32.852;-116.998;2023-06-04T12:22:14;99665.41;;;23.96
45701;BMP280;36277;32.852;-116.998;2023-06-04T12:24:48;99660.97;;;24.01
45701;BMP280;36277;32.852;-116.998;2023-06-04T12:27:15;99672.22;;;24.00
45701;BMP280;36277;32.852;-116.998;2023-06-04T12:29:41;99664.59;;;24.02
45701;BMP280;36277;32.852;-116.998;2023-06-04T12:32:08;99678.16;;;24.03
45701;BMP280;36277;32.852;-116.998;2023-06-04T12:34:37;99678.16;;;24.03
45701;BMP280;36277;32.852;-116.998;2023-06-04T12:37:04;99680.72;;;24.05
45701;BMP280;36277;32.852;-116.998;2023-06-04T12:39:35;99679.66;;;24.06
45701;BMP280;36277;32.852;-116.998;2023-06-04T12:42:09;99673.94;;;24.07
45701;BMP280;36277;32.852;-116.998;2023-06-04T12:44:36;99685.38;;;24.04
45701;BMP280;36277;32.852;-116.998;2023-06-04T12:47:03;99681.56;;;24.05
45701;BMP280;36277;32.852;-116.998;2023-06-04T12:49:29;99672.63;;;24.03
45701;BMP280;36277;32.852;-116.998;2023-06-04T12:51:56;99685.38;;;24.04
45701;BMP280;36277;32.852;-116.998;2023-06-04T12:54:22;99691.75;;;24.05
45701;BMP280;36277;32.852;-116.998;2023-06-04T12:56:49;99683.66;;;24.03
45701;BMP280;36277;32.852;-116.998;2023-06-04T12:59:16;99687.28;;;24.04
45701;BMP280;36277;32.852;-116.998;2023-06-04T13:01:42;99694.50;;;24.05
45701;BMP280;36277;32.852;-116.998;2023-06-04T13:04:09;99695.56;;;24.04
45701;BMP280;36277;32.852;-116.998;2023-06-04T13:06:35;99692.59;;;24.05
45701;BMP280;36277;32.852;-116.998;2023-06-04T13:09:03;99694.28;;;24.06
45701;BMP280;36277;32.852;-116.998;2023-06-04T13:11:40;99696.00;;;24.07
45701;BMP280;36277;32.852;-116.998;2023-06-04T13:14:07;99697.03;;;24.06
45701;BMP280;36277;32.852;-116.998;2023-06-04T13:16:34;99704.47;;;24.06
45701;BMP280;36277;32.852;-116.998;2023-06-04T13:19:02;99707.88;;;24.08
45701;BMP280;36277;32.852;-116.998;2023-06-04T13:21:28;99700.44;;;24.08
45701;BMP280;36277;32.852;-116.998;2023-06-04T13:23:55;99702.38;;;24.08
45701;BMP280;36277;32.852;-116.998;2023-06-04T13:26:22;99707.66;;;24.09
45701;BMP280;36277;32.852;-116.998;2023-06-04T13:28:48;99704.91;;;24.09
45701;BMP280;36277;32.852;-116.998;2023-06-04T13:31:14;99711.25;;;24.10
45701;BMP280;36277;32.852;-116.998;2023-06-04T13:33:42;99711.47;;;24.08
45701;BMP280;36277;32.852;-116.998;2023-06-04T13:36:08;99713.84;;;24.11
45701;BMP280;36277;32.852;-116.998;2023-06-04T13:38:34;99716.78;;;24.10
45701;BMP280;36277;32.852;-116.998;2023-06-04T13:41:01;99722.28;;;24.10
45701;BMP280;36277;32.852;-116.998;2023-06-04T13:43:27;99724.88;;;24.11